sensor_id;sensor_type;location;lat;lon;timestamp;temperature;humidity
7325;DHT22;3703;48.016;7.802;2022-10-04T00:00:38;10.60;99.90
7325;DHT22;3703;48.016;7.802;2022-10-04T00:03:30;10.30;99.90
7325;DHT22;3703;48.016;7.802;2022-10-04T00:06:23;10.40;99.90
7325;DHT22;3703;48.016;7.802;2022-10-04T00:09:15;10.30;99.90
7325;DHT22;3703;48.016;7.802;2022-10-04T00:12:05;10.20;99.90
7325;DHT22;3703;48.016;7.802;2022-10-04T00:15:04;10.20;99.90
7325;DHT22;3703;48.016;7.802;2022-10-04T00:18:00;10.30;99.90
7325;DHT22;3703;48.016;7.802;2022-10-04T00:21:01;10.20;99.90
7325;DHT22;3703;48.016;7.802;2022-10-04T00:24:08;10.20;99.90
7325;DHT22;3703;48.016;7.802;2022-10-04T00:27:10;10.10;99.90
7325;DHT22;3703;48.016;7.802;2022-10-04T00:30:19;10.10;99.90
7325;DHT22;3703;48.016;7.802;2022-10-04T00:33:08;10.10;99.90
7325;DHT22;3703;48.016;7.802;2022-10-04T00:35:56;10.00;99.90
7325;DHT22;3703;48.016;7.802;2022-10-04T00:39:01;9.90;99.90
7325;DHT22;3703;48.016;7.802;2022-10-04T00:42:00;9.80;99.90
7325;DHT22;3703;48.016;7.802;2022-10-04T00:44:58;9.80;99.90
7325;DHT22;3703;48.016;7.802;2022-10-04T00:48:04;9.80;99.90
7325;DHT22;3703;48.016;7.802;2022-10-04T00:51:13;9.80;99.90
7325;DHT22;3703;48.016;7.802;2022-10-04T00:54:10;9.80;99.90
7325;DHT22;3703;48.016;7.802;2022-10-04T00:57:01;9.70;99.90
7325;DHT22;3703;48.016;7.802;2022-10-04T00:59:52;9.60;99.90
7325;DHT22;3703;48.016;7.802;2022-10-04T01:02:50;9.70;99.90
7325;DHT22;3703;48.016;7.802;2022-10-04T01:05:43;9.70;99.90
7325;DHT22;3703;48.016;7.802;2022-10-04T01:08:35;9.80;99.90
7325;DHT22;3703;48.016;7.802;2022-10-04T01:11:28;9.70;99.90
7325;DHT22;3703;48.016;7.802;2022-10-04T01:14:20;9.70;99.90
7325;DHT22;3703;48.016;7.802;2022-10-04T01:17:15;9.70;99.90
7325;DHT22;3703;48.016;7.802;2022-10-04T01:20:31;9.60;99.90
7325;DHT22;3703;48.016;7.802;2022-10-04T01:23:44;9.70;99.90
7325;DHT22;3703;48.016;7.802;2022-10-04T01:26:38;9.60;99.90
7325;DHT22;3703;48.016;7.802;2022-10-04T01:29:28;9.50;99.90
7325;DHT22;3703;48.016;7.802;2022-10-04T01:32:17;9.50;99.90
7325;DHT22;3703;48.016;7.802;2022-10-04T01:35:08;9.50;99.90
7325;DHT22;3703;48.016;7.802;2022-10-04T01:37:57;9.50;99.90
7325;DHT22;3703;48.016;7.802;2022-10-04T01:40:49;9.50;99.90
7325;DHT22;3703;48.016;7.802;2022-10-04T01:43:41;9.60;99.90
7325;DHT22;3703;48.016;7.802;2022-10-04T01:46:34;9.40;99.90
7325;DHT22;3703;48.016;7.802;2022-10-04T01:49:27;9.30;99.90
7325;DHT22;3703;48.016;7.802;2022-10-04T01:52:21;9.00;99.90
7325;DHT22;3703;48.016;7.802;2022-10-04T01:55:14;9.20;99.90
7325;DHT22;3703;48.016;7.802;2022-10-04T01:58:10;8.30;99.90
7325;DHT22;3703;48.016;7.802;2022-10-04T02:01:04;9.30;99.90
7325;DHT22;3703;48.016;7.802;2022-10-04T02:03:59;9.20;99.90
7325;DHT22;3703;48.016;7.802;2022-10-04T02:06:51;9.30;99.90
7325;DHT22;3703;48.016;7.802;2022-10-04T02:09:44;9.40;99.90
7325;DHT22;3703;48.016;7.802;2022-10-04T02:12:33;9.30;99.90
7325;DHT22;3703;48.016;7.802;2022-10-04T02:15:24;9.30;99.90
7325;DHT22;3703;48.016;7.802;2022-10-04T02:18:14;9.30;99.90
7325;DHT22;3703;48.016;7.802;2022-10-04T02:21:06;9.40;99.90
7325;DHT22;3703;48.016;7.802;2022-10-04T02:23:54;9.30;99.90
7325;DHT22;3703;48.016;7.802;2022-10-04T02:26:48;9.20;99.90
7325;DHT22;3703;48.016;7.802;2022-10-04T02:29:36;9.20;99.90
7325;DHT22;3703;48.016;7.802;2022-10-04T02:32:26;8.10;99.90
7325;DHT22;3703;48.016;7.802;2022-10-04T02:35:35;9.20;99.90
7325;DHT22;3703;48.016;7.802;2022-10-04T02:38:27;9.10;99.90
7325;DHT22;3703;48.016;7.802;2022-10-04T02:41:23;9.00;99.90
7325;DHT22;3703;48.016;7.802;2022-10-04T02:44:17;9.10;99.90
7325;DHT22;3703;48.016;7.802;2022-10-04T02:47:12;9.10;99.90
7325;DHT22;3703;48.016;7.802;2022-10-04T02:50:07;9.00;99.90
7325;DHT22;3703;48.016;7.802;2022-10-04T02:53:11;9.00;99.90
7325;DHT22;3703;48.016;7.802;2022-10-04T02:56:04;9.10;99.90
7325;DHT22;3703;48.016;7.802;2022-10-04T02:58:54;8.90;99.90
7325;DHT22;3703;48.016;7.802;2022-10-04T03:01:51;8.90;99.90
7325;DHT22;3703;48.016;7.802;2022-10-04T03:04:40;8.90;99.90
7325;DHT22;3703;48.016;7.802;2022-10-04T03:07:30;8.80;99.90
7325;DHT22;3703;48.016;7.802;2022-10-04T03:10:18;8.80;99.90
7325;DHT22;3703;48.016;7.802;2022-10-04T03:13:07;8.80;99.90
7325;DHT22;3703;48.016;7.802;2022-10-04T03:15:55;8.80;99.90
7325;DHT22;3703;48.016;7.802;2022-10-04T03:18:43;8.80;99.90
7325;DHT22;3703;48.016;7.802;2022-10-04T03:21:33;8.60;99.90
7325;DHT22;3703;48.016;7.802;2022-10-04T03:24:27;8.50;99.90
7325;DHT22;3703;48.016;7.802;2022-10-04T03:27:20;8.50;99.90
7325;DHT22;3703;48.016;7.802;2022-10-04T03:30:12;8.60;99.90
7325;DHT22;3703;48.016;7.802;2022-10-04T03:33:00;8.50;99.90
7325;DHT22;3703;48.016;7.802;2022-10-04T03:35:51;8.60;99.90
7325;DHT22;3703;48.016;7.802;2022-10-04T03:38:40;8.50;99.90
7325;DHT22;3703;48.016;7.802;2022-10-04T03:41:30;8.50;99.90
7325;DHT22;3703;48.016;7.802;2022-10-04T03:44:18;8.40;99.90
7325;DHT22;3703;48.016;7.802;2022-10-04T03:47:08;8.30;99.90
7325;DHT22;3703;48.016;7.802;2022-10-04T03:50:01;8.20;99.90
7325;DHT22;3703;48.016;7.802;2022-10-04T03:52:53;8.20;99.90
7325;DHT22;3703;48.016;7.802;2022-10-04T03:55:43;8.20;99.90
7325;DHT22;3703;48.016;7.802;2022-10-04T03:58:33;8.10;99.90
7325;DHT22;3703;48.016;7.802;2022-10-04T04:01:43;8.10;99.90
7325;DHT22;3703;48.016;7.802;2022-10-04T04:04:41;7.90;99.90
7325;DHT22;3703;48.016;7.802;2022-10-04T04:07:35;7.90;99.90
7325;DHT22;3703;48.016;7.802;2022-10-04T04:10:27;7.80;99.90
7325;DHT22;3703;48.016;7.802;2022-10-04T04:13:22;7.90;99.90
7325;DHT22;3703;48.016;7.802;2022-10-04T04:16:14;8.00;99.90
7325;DHT22;3703;48.016;7.802;2022-10-04T04:19:04;8.10;99.90
7325;DHT22;3703;48.016;7.802;2022-10-04T04:21:58;8.30;99.90
7325;DHT22;3703;48.016;7.802;2022-10-04T04:24:46;8.30;99.90
7325;DHT22;3703;48.016;7.802;2022-10-04T04:27:36;8.50;99.90
7325;DHT22;3703;48.016;7.802;2022-10-04T04:30:26;8.50;99.90
7325;DHT22;3703;48.016;7.802;2022-10-04T04:33:21;8.50;99.90
7325;DHT22;3703;48.016;7.802;2022-10-04T04:36:14;8.60;99.90
7325;DHT22;3703;48.016;7.802;2022-10-04T04:39:07;8.60;99.90
7325;DHT22;3703;48.016;7.802;2022-10-04T04:42:16;8.70;99.90
7325;DHT22;3703;48.016;7.802;2022-10-04T04:45:13;8.70;99.90
7325;DHT22;3703;48.016;7.802;2022-10-04T04:48:02;8.60;99.90
7325;DHT22;3703;48.016;7.802;2022-10-04T04:50:56;8.10;99.90
7325;DHT22;3703;48.016;7.802;2022-10-04T04:53:44;8.60;99.90
7325;DHT22;3703;48.016;7.802;2022-10-04T04:56:34;8.60;99.90
7325;DHT22;3703;48.016;7.802;2022-10-04T04:59:23;8.70;99.90
7325;DHT22;3703;48.016;7.802;2022-10-04T05:02:27;8.70;99.90
7325;DHT22;3703;48.016;7.802;2022-10-04T05:05:22;8.70;99.90
7325;DHT22;3703;48.016;7.802;2022-10-04T05:08:14;8.60;99.90
7325;DHT22;3703;48.016;7.802;2022-10-04T05:11:11;8.70;99.90
7325;DHT22;3703;48.016;7.802;2022-10-04T05:14:04;8.70;99.90
7325;DHT22;3703;48.016;7.802;2022-10-04T05:16:53;8.80;99.90
7325;DHT22;3703;48.016;7.802;2022-10-04T05:19:41;8.90;99.90
7325;DHT22;3703;48.016;7.802;2022-10-04T05:22:29;9.10;99.90
7325;DHT22;3703;48.016;7.802;2022-10-04T05:25:25;9.10;99.90
7325;DHT22;3703;48.016;7.802;2022-10-04T05:28:15;9.10;99.90
7325;DHT22;3703;48.016;7.802;2022-10-04T05:31:18;9.20;99.90
7325;DHT22;3703;48.016;7.802;2022-10-04T05:34:23;9.10;99.90
7325;DHT22;3703;48.016;7.802;2022-10-04T05:40:40;8.90;99.90
7325;DHT22;3703;48.016;7.802;2022-10-04T05:43:35;8.80;99.90
7325;DHT22;3703;48.016;7.802;2022-10-04T05:46:25;8.60;99.90
7325;DHT22;3703;48.016;7.802;2022-10-04T05:49:15;8.50;99.90
7325;DHT22;3703;48.016;7.802;2022-10-04T05:52:13;8.50;99.90
7325;DHT22;3703;48.016;7.802;2022-10-04T05:55:21;8.50;99.90
7325;DHT22;3703;48.016;7.802;2022-10-04T05:58:37;8.50;99.90
7325;DHT22;3703;48.016;7.802;2022-10-04T06:01:41;8.60;99.90
7325;DHT22;3703;48.016;7.802;2022-10-04T06:04:52;8.70;99.90
7325;DHT22;3703;48.016;7.802;2022-10-04T06:07:50;8.80;99.90
7325;DHT22;3703;48.016;7.802;2022-10-04T06:11:04;8.80;99.90
7325;DHT22;3703;48.016;7.802;2022-10-04T06:17:58;9.00;99.90
7325;DHT22;3703;48.016;7.802;2022-10-04T06:24:10;9.20;99.90
7325;DHT22;3703;48.016;7.802;2022-10-04T06:27:03;9.30;99.90
7325;DHT22;3703;48.016;7.802;2022-10-04T06:30:01;9.30;99.90
7325;DHT22;3703;48.016;7.802;2022-10-04T06:33:07;9.50;99.90
7325;DHT22;3703;48.016;7.802;2022-10-04T06:39:43;9.60;99.90
7325;DHT22;3703;48.016;7.802;2022-10-04T06:43:05;9.70;99.90
7325;DHT22;3703;48.016;7.802;2022-10-04T06:46:15;9.70;99.90
7325;DHT22;3703;48.016;7.802;2022-10-04T06:49:30;9.60;99.90
7325;DHT22;3703;48.016;7.802;2022-10-04T06:52:29;9.40;99.90
7325;DHT22;3703;48.016;7.802;2022-10-04T06:55:39;9.50;99.90
7325;DHT22;3703;48.016;7.802;2022-10-04T06:58:46;9.70;99.90
7325;DHT22;3703;48.016;7.802;2022-10-04T07:01:55;9.80;99.90
7325;DHT22;3703;48.016;7.802;2022-10-04T07:04:49;9.80;99.90
7325;DHT22;3703;48.016;7.802;2022-10-04T07:07:42;10.00;99.90
7325;DHT22;3703;48.016;7.802;2022-10-04T07:10:44;10.00;99.90
7325;DHT22;3703;48.016;7.802;2022-10-04T07:13:44;10.10;99.90
7325;DHT22;3703;48.016;7.802;2022-10-04T07:16:38;10.20;99.90
7325;DHT22;3703;48.016;7.802;2022-10-04T07:19:35;10.40;99.90
7325;DHT22;3703;48.016;7.802;2022-10-04T07:22:28;13.00;99.90
7325;DHT22;3703;48.016;7.802;2022-10-04T07:25:23;11.30;99.90
7325;DHT22;3703;48.016;7.802;2022-10-04T07:28:16;10.70;99.90
7325;DHT22;3703;48.016;7.802;2022-10-04T07:31:26;10.80;99.90
7325;DHT22;3703;48.016;7.802;2022-10-04T07:34:17;10.90;99.90
7325;DHT22;3703;48.016;7.802;2022-10-04T07:37:11;11.00;99.90
7325;DHT22;3703;48.016;7.802;2022-10-04T07:40:03;11.10;99.90
7325;DHT22;3703;48.016;7.802;2022-10-04T07:42:56;11.10;99.90
7325;DHT22;3703;48.016;7.802;2022-10-04T07:45:46;11.20;99.90
7325;DHT22;3703;48.016;7.802;2022-10-04T07:48:39;11.40;99.90
7325;DHT22;3703;48.016;7.802;2022-10-04T07:51:32;11.50;99.90
7325;DHT22;3703;48.016;7.802;2022-10-04T07:54:33;11.60;99.90
7325;DHT22;3703;48.016;7.802;2022-10-04T07:57:29;11.70;99.90
7325;DHT22;3703;48.016;7.802;2022-10-04T08:00:26;11.60;99.90
7325;DHT22;3703;48.016;7.802;2022-10-04T08:03:33;11.60;99.90
7325;DHT22;3703;48.016;7.802;2022-10-04T08:06:34;11.80;99.90
7325;DHT22;3703;48.016;7.802;2022-10-04T08:09:32;11.80;99.90
7325;DHT22;3703;48.016;7.802;2022-10-04T08:12:33;12.00;99.90
7325;DHT22;3703;48.016;7.802;2022-10-04T08:15:36;12.30;99.90
7325;DHT22;3703;48.016;7.802;2022-10-04T08:18:35;12.40;99.90
7325;DHT22;3703;48.016;7.802;2022-10-04T08:21:33;12.50;99.90
7325;DHT22;3703;48.016;7.802;2022-10-04T08:24:31;12.80;99.90
7325;DHT22;3703;48.016;7.802;2022-10-04T08:27:40;13.10;99.90
7325;DHT22;3703;48.016;7.802;2022-10-04T08:31:08;13.50;99.90
7325;DHT22;3703;48.016;7.802;2022-10-04T08:34:15;14.00;99.90
7325;DHT22;3703;48.016;7.802;2022-10-04T08:37:16;14.30;99.90
7325;DHT22;3703;48.016;7.802;2022-10-04T08:44:40;14.60;99.90
7325;DHT22;3703;48.016;7.802;2022-10-04T08:48:29;14.30;99.90
7325;DHT22;3703;48.016;7.802;2022-10-04T08:59:16;14.60;99.90
7325;DHT22;3703;48.016;7.802;2022-10-04T09:02:40;14.80;99.90
7325;DHT22;3703;48.016;7.802;2022-10-04T09:06:12;14.90;99.90
7325;DHT22;3703;48.016;7.802;2022-10-04T09:09:55;15.20;99.90
7325;DHT22;3703;48.016;7.802;2022-10-04T09:13:04;15.80;99.90
7325;DHT22;3703;48.016;7.802;2022-10-04T09:16:13;15.60;99.90
7325;DHT22;3703;48.016;7.802;2022-10-04T09:19:19;16.20;99.90
7325;DHT22;3703;48.016;7.802;2022-10-04T09:22:16;16.80;99.90
7325;DHT22;3703;48.016;7.802;2022-10-04T09:25:21;17.20;99.90
7325;DHT22;3703;48.016;7.802;2022-10-04T09:28:37;17.80;99.90
7325;DHT22;3703;48.016;7.802;2022-10-04T09:32:20;18.30;99.90
7325;DHT22;3703;48.016;7.802;2022-10-04T09:35:40;18.80;99.90
7325;DHT22;3703;48.016;7.802;2022-10-04T09:39:16;18.30;99.90
7325;DHT22;3703;48.016;7.802;2022-10-04T09:42:38;17.60;99.90
7325;DHT22;3703;48.016;7.802;2022-10-04T09:45:58;16.30;99.90
7325;DHT22;3703;48.016;7.802;2022-10-04T09:49:01;16.40;99.90
7325;DHT22;3703;48.016;7.802;2022-10-04T09:55:28;16.80;99.90
7325;DHT22;3703;48.016;7.802;2022-10-04T09:58:55;17.20;99.90
7325;DHT22;3703;48.016;7.802;2022-10-04T10:05:29;19.40;99.90
7325;DHT22;3703;48.016;7.802;2022-10-04T10:08:33;19.80;99.90
7325;DHT22;3703;48.016;7.802;2022-10-04T10:11:28;19.40;99.90
7325;DHT22;3703;48.016;7.802;2022-10-04T10:18:03;18.80;99.90
7325;DHT22;3703;48.016;7.802;2022-10-04T10:21:20;19.20;99.90
7325;DHT22;3703;48.016;7.802;2022-10-04T10:28:03;19.20;99.90
7325;DHT22;3703;48.016;7.802;2022-10-04T10:31:36;20.30;99.90
7325;DHT22;3703;48.016;7.802;2022-10-04T10:34:51;20.60;99.90
7325;DHT22;3703;48.016;7.802;2022-10-04T10:38:25;20.80;99.90
7325;DHT22;3703;48.016;7.802;2022-10-04T10:41:30;19.90;99.90
7325;DHT22;3703;48.016;7.802;2022-10-04T10:44:35;19.60;99.90
7325;DHT22;3703;48.016;7.802;2022-10-04T10:47:46;19.40;99.90
7325;DHT22;3703;48.016;7.802;2022-10-04T10:50:50;19.60;99.90
7325;DHT22;3703;48.016;7.802;2022-10-04T10:57:39;22.00;99.90
7325;DHT22;3703;48.016;7.802;2022-10-04T11:00:49;23.30;99.90
7325;DHT22;3703;48.016;7.802;2022-10-04T11:04:03;22.80;99.90
7325;DHT22;3703;48.016;7.802;2022-10-04T11:07:34;22.10;99.90
7325;DHT22;3703;48.016;7.802;2022-10-04T11:11:02;21.10;99.90
7325;DHT22;3703;48.016;7.802;2022-10-04T11:14:29;21.20;99.90
7325;DHT22;3703;48.016;7.802;2022-10-04T11:17:57;21.80;99.90
7325;DHT22;3703;48.016;7.802;2022-10-04T11:25:08;21.50;99.90
7325;DHT22;3703;48.016;7.802;2022-10-04T11:28:13;21.60;99.90
7325;DHT22;3703;48.016;7.802;2022-10-04T11:31:26;22.00;99.90
7325;DHT22;3703;48.016;7.802;2022-10-04T11:34:54;22.20;99.90
7325;DHT22;3703;48.016;7.802;2022-10-04T11:38:25;23.10;99.90
7325;DHT22;3703;48.016;7.802;2022-10-04T11:41:46;23.40;99.90
7325;DHT22;3703;48.016;7.802;2022-10-04T11:48:26;21.80;99.90
7325;DHT22;3703;48.016;7.802;2022-10-04T11:51:45;21.30;99.90
7325;DHT22;3703;48.016;7.802;2022-10-04T11:58:57;21.60;99.90
7325;DHT22;3703;48.016;7.802;2022-10-04T12:02:13;22.10;99.90
7325;DHT22;3703;48.016;7.802;2022-10-04T12:05:57;22.10;99.90
7325;DHT22;3703;48.016;7.802;2022-10-04T12:09:02;23.10;99.90
7325;DHT22;3703;48.016;7.802;2022-10-04T12:12:10;23.50;99.90
7325;DHT22;3703;48.016;7.802;2022-10-04T12:16:04;23.90;99.90
7325;DHT22;3703;48.016;7.802;2022-10-04T12:23:30;22.90;99.90
7325;DHT22;3703;48.016;7.802;2022-10-04T12:27:02;23.30;99.90
7325;DHT22;3703;48.016;7.802;2022-10-04T12:30:15;24.10;99.90
7325;DHT22;3703;48.016;7.802;2022-10-04T12:33:13;23.40;99.90
7325;DHT22;3703;48.016;7.802;2022-10-04T12:36:17;23.30;99.90
7325;DHT22;3703;48.016;7.802;2022-10-04T12:39:40;23.90;99.90
7325;DHT22;3703;48.016;7.802;2022-10-04T12:42:39;23.50;99.90
7325;DHT22;3703;48.016;7.802;2022-10-04T12:45:45;24.40;99.90
7325;DHT22;3703;48.016;7.802;2022-10-04T12:48:50;24.40;99.90
7325;DHT22;3703;48.016;7.802;2022-10-04T12:51:55;25.40;99.90
7325;DHT22;3703;48.016;7.802;2022-10-04T12:54:48;26.10;99.90
7325;DHT22;3703;48.016;7.802;2022-10-04T12:57:46;26.40;99.90
7325;DHT22;3703;48.016;7.802;2022-10-04T13:00:40;26.90;99.90
7325;DHT22;3703;48.016;7.802;2022-10-04T13:03:37;27.40;99.90
7325;DHT22;3703;48.016;7.802;2022-10-04T13:06:56;27.20;99.90
7325;DHT22;3703;48.016;7.802;2022-10-04T13:09:59;27.40;99.90
7325;DHT22;3703;48.016;7.802;2022-10-04T13:13:23;27.50;99.90
7325;DHT22;3703;48.016;7.802;2022-10-04T13:16:38;27.80;99.90
7325;DHT22;3703;48.016;7.802;2022-10-04T13:19:40;27.80;99.90
7325;DHT22;3703;48.016;7.802;2022-10-04T13:22:42;27.90;99.90
7325;DHT22;3703;48.016;7.802;2022-10-04T13:25:45;27.70;99.90
7325;DHT22;3703;48.016;7.802;2022-10-04T13:28:48;27.70;99.90
7325;DHT22;3703;48.016;7.802;2022-10-04T13:31:45;27.70;99.90
7325;DHT22;3703;48.016;7.802;2022-10-04T13:34:39;27.70;99.90
7325;DHT22;3703;48.016;7.802;2022-10-04T13:37:34;27.30;99.90
7325;DHT22;3703;48.016;7.802;2022-10-04T13:40:43;26.80;99.90
7325;DHT22;3703;48.016;7.802;2022-10-04T13:44:12;25.70;99.90
7325;DHT22;3703;48.016;7.802;2022-10-04T13:47:32;24.60;99.90
7325;DHT22;3703;48.016;7.802;2022-10-04T13:50:36;25.40;99.90
7325;DHT22;3703;48.016;7.802;2022-10-04T13:53:39;26.00;99.90
7325;DHT22;3703;48.016;7.802;2022-10-04T13:56:56;26.50;99.90
7325;DHT22;3703;48.016;7.802;2022-10-04T13:59:52;26.60;99.90
7325;DHT22;3703;48.016;7.802;2022-10-04T14:03:21;26.80;99.90
7325;DHT22;3703;48.016;7.802;2022-10-04T14:06:54;26.10;99.90
7325;DHT22;3703;48.016;7.802;2022-10-04T14:10:28;25.70;99.90
7325;DHT22;3703;48.016;7.802;2022-10-04T14:14:06;25.40;99.90
7325;DHT22;3703;48.016;7.802;2022-10-04T14:18:02;24.90;99.90
7325;DHT22;3703;48.016;7.802;2022-10-04T14:21:18;24.60;99.90
7325;DHT22;3703;48.016;7.802;2022-10-04T14:24:52;24.00;99.90
7325;DHT22;3703;48.016;7.802;2022-10-04T14:31:45;24.40;99.90
7325;DHT22;3703;48.016;7.802;2022-10-04T14:34:58;24.30;99.90
7325;DHT22;3703;48.016;7.802;2022-10-04T14:42:11;23.70;99.90
7325;DHT22;3703;48.016;7.802;2022-10-04T14:45:20;23.80;99.90
7325;DHT22;3703;48.016;7.802;2022-10-04T14:48:38;23.80;99.90
7325;DHT22;3703;48.016;7.802;2022-10-04T14:51:39;23.70;99.90
7325;DHT22;3703;48.016;7.802;2022-10-04T14:54:43;23.60;99.90
7325;DHT22;3703;48.016;7.802;2022-10-04T14:57:49;23.80;99.90
7325;DHT22;3703;48.016;7.802;2022-10-04T15:01:14;24.00;99.90
7325;DHT22;3703;48.016;7.802;2022-10-04T15:04:19;24.10;99.90
7325;DHT22;3703;48.016;7.802;2022-10-04T15:07:17;23.60;99.90
7325;DHT22;3703;48.016;7.802;2022-10-04T15:10:13;23.70;99.90
7325;DHT22;3703;48.016;7.802;2022-10-04T15:13:08;23.60;99.90
7325;DHT22;3703;48.016;7.802;2022-10-04T15:16:12;23.00;99.90
7325;DHT22;3703;48.016;7.802;2022-10-04T15:19:10;22.90;99.90
7325;DHT22;3703;48.016;7.802;2022-10-04T15:22:14;22.60;99.90
7325;DHT22;3703;48.016;7.802;2022-10-04T15:25:36;22.60;99.90
7325;DHT22;3703;48.016;7.802;2022-10-04T15:28:36;22.70;99.90
7325;DHT22;3703;48.016;7.802;2022-10-04T15:31:35;22.70;99.90
7325;DHT22;3703;48.016;7.802;2022-10-04T15:34:31;22.80;99.90
7325;DHT22;3703;48.016;7.802;2022-10-04T15:37:25;22.70;99.90
7325;DHT22;3703;48.016;7.802;2022-10-04T15:40:34;22.20;99.90
7325;DHT22;3703;48.016;7.802;2022-10-04T15:43:29;22.20;99.90
7325;DHT22;3703;48.016;7.802;2022-10-04T15:46:32;22.10;99.90
7325;DHT22;3703;48.016;7.802;2022-10-04T15:49:36;22.10;99.90
7325;DHT22;3703;48.016;7.802;2022-10-04T15:52:51;21.90;99.90
7325;DHT22;3703;48.016;7.802;2022-10-04T15:56:18;21.50;99.90
7325;DHT22;3703;48.016;7.802;2022-10-04T15:59:24;21.40;99.90
7325;DHT22;3703;48.016;7.802;2022-10-04T16:02:45;21.10;99.90
7325;DHT22;3703;48.016;7.802;2022-10-04T16:05:43;20.80;99.90
7325;DHT22;3703;48.016;7.802;2022-10-04T16:08:58;20.90;99.90
7325;DHT22;3703;48.016;7.802;2022-10-04T16:12:07;20.90;99.90
7325;DHT22;3703;48.016;7.802;2022-10-04T16:15:15;20.90;99.90
7325;DHT22;3703;48.016;7.802;2022-10-04T16:18:28;20.70;99.90
7325;DHT22;3703;48.016;7.802;2022-10-04T16:21:27;20.60;99.90
7325;DHT22;3703;48.016;7.802;2022-10-04T16:24:47;20.60;99.90
7325;DHT22;3703;48.016;7.802;2022-10-04T16:27:57;20.60;99.90
7325;DHT22;3703;48.016;7.802;2022-10-04T16:34:38;20.50;99.90
7325;DHT22;3703;48.016;7.802;2022-10-04T16:37:36;20.50;99.90
7325;DHT22;3703;48.016;7.802;2022-10-04T16:40:32;20.30;99.90
7325;DHT22;3703;48.016;7.802;2022-10-04T16:43:26;20.20;99.90
7325;DHT22;3703;48.016;7.802;2022-10-04T16:46:23;20.10;99.90
7325;DHT22;3703;48.016;7.802;2022-10-04T16:49:21;20.00;99.90
7325;DHT22;3703;48.016;7.802;2022-10-04T16:52:37;19.80;99.90
7325;DHT22;3703;48.016;7.802;2022-10-04T16:55:48;19.70;99.90
7325;DHT22;3703;48.016;7.802;2022-10-04T16:58:54;19.50;99.90
7325;DHT22;3703;48.016;7.802;2022-10-04T17:02:20;19.40;99.90
7325;DHT22;3703;48.016;7.802;2022-10-04T17:09:13;19.10;99.90
7325;DHT22;3703;48.016;7.802;2022-10-04T17:12:16;18.90;99.90
7325;DHT22;3703;48.016;7.802;2022-10-04T17:15:19;18.60;99.90
7325;DHT22;3703;48.016;7.802;2022-10-04T17:18:19;18.30;99.90
7325;DHT22;3703;48.016;7.802;2022-10-04T17:21:27;18.00;99.90
7325;DHT22;3703;48.016;7.802;2022-10-04T17:24:26;17.80;99.90
7325;DHT22;3703;48.016;7.802;2022-10-04T17:27:42;17.50;99.90
7325;DHT22;3703;48.016;7.802;2022-10-04T17:30:43;17.20;99.90
7325;DHT22;3703;48.016;7.802;2022-10-04T17:33:44;17.20;99.90
7325;DHT22;3703;48.016;7.802;2022-10-04T17:36:38;17.00;99.90
7325;DHT22;3703;48.016;7.802;2022-10-04T17:39:37;17.00;99.90
7325;DHT22;3703;48.016;7.802;2022-10-04T17:42:35;16.80;99.90
7325;DHT22;3703;48.016;7.802;2022-10-04T17:45:51;16.80;99.90
7325;DHT22;3703;48.016;7.802;2022-10-04T17:48:55;16.70;99.90
7325;DHT22;3703;48.016;7.802;2022-10-04T17:52:04;16.60;99.90
7325;DHT22;3703;48.016;7.802;2022-10-04T17:55:41;16.50;99.90
7325;DHT22;3703;48.016;7.802;2022-10-04T17:58:39;16.50;99.90
7325;DHT22;3703;48.016;7.802;2022-10-04T18:01:32;16.30;99.90
7325;DHT22;3703;48.016;7.802;2022-10-04T18:04:23;16.30;99.90
7325;DHT22;3703;48.016;7.802;2022-10-04T18:07:17;16.20;99.90
7325;DHT22;3703;48.016;7.802;2022-10-04T18:10:17;16.20;99.90
7325;DHT22;3703;48.016;7.802;2022-10-04T18:13:16;16.20;99.90
7325;DHT22;3703;48.016;7.802;2022-10-04T18:16:13;16.20;99.90
7325;DHT22;3703;48.016;7.802;2022-10-04T18:19:29;16.10;99.90
7325;DHT22;3703;48.016;7.802;2022-10-04T18:22:24;16.00;99.90
7325;DHT22;3703;48.016;7.802;2022-10-04T18:25:15;16.00;99.90
7325;DHT22;3703;48.016;7.802;2022-10-04T18:28:13;16.00;99.90
7325;DHT22;3703;48.016;7.802;2022-10-04T18:31:24;15.90;99.90
7325;DHT22;3703;48.016;7.802;2022-10-04T18:34:18;15.80;99.90
7325;DHT22;3703;48.016;7.802;2022-10-04T18:37:18;15.80;99.90
7325;DHT22;3703;48.016;7.802;2022-10-04T18:40:14;15.70;99.90
7325;DHT22;3703;48.016;7.802;2022-10-04T18:43:24;15.70;99.90
7325;DHT22;3703;48.016;7.802;2022-10-04T18:46:16;15.70;99.90
7325;DHT22;3703;48.016;7.802;2022-10-04T18:49:14;15.60;99.90
7325;DHT22;3703;48.016;7.802;2022-10-04T18:52:14;15.50;99.90
7325;DHT22;3703;48.016;7.802;2022-10-04T18:55:17;15.50;99.90
7325;DHT22;3703;48.016;7.802;2022-10-04T18:58:24;15.40;99.90
7325;DHT22;3703;48.016;7.802;2022-10-04T19:01:58;15.30;99.90
7325;DHT22;3703;48.016;7.802;2022-10-04T19:04:59;15.30;99.90
7325;DHT22;3703;48.016;7.802;2022-10-04T19:07:57;15.20;99.90
7325;DHT22;3703;48.016;7.802;2022-10-04T19:10:54;15.10;99.90
7325;DHT22;3703;48.016;7.802;2022-10-04T19:13:52;15.10;99.90
7325;DHT22;3703;48.016;7.802;2022-10-04T19:16:48;15.10;99.90
7325;DHT22;3703;48.016;7.802;2022-10-04T19:19:47;15.00;99.90
7325;DHT22;3703;48.016;7.802;2022-10-04T19:22:45;14.90;99.90
7325;DHT22;3703;48.016;7.802;2022-10-04T19:25:39;14.80;99.90
7325;DHT22;3703;48.016;7.802;2022-10-04T19:28:33;14.80;99.90
7325;DHT22;3703;48.016;7.802;2022-10-04T19:31:28;14.90;99.90
7325;DHT22;3703;48.016;7.802;2022-10-04T19:34:26;14.90;99.90
7325;DHT22;3703;48.016;7.802;2022-10-04T19:37:25;14.90;99.90
7325;DHT22;3703;48.016;7.802;2022-10-04T19:40:21;14.90;99.90
7325;DHT22;3703;48.016;7.802;2022-10-04T19:43:17;15.00;99.90
7325;DHT22;3703;48.016;7.802;2022-10-04T19:46:13;15.00;99.90
7325;DHT22;3703;48.016;7.802;2022-10-04T19:49:17;15.00;99.90
7325;DHT22;3703;48.016;7.802;2022-10-04T19:52:29;15.10;99.90
7325;DHT22;3703;48.016;7.802;2022-10-04T19:55:23;15.00;99.90
7325;DHT22;3703;48.016;7.802;2022-10-04T19:58:24;14.90;99.90
7325;DHT22;3703;48.016;7.802;2022-10-04T20:01:18;14.80;99.90
7325;DHT22;3703;48.016;7.802;2022-10-04T20:04:13;14.70;99.90
7325;DHT22;3703;48.016;7.802;2022-10-04T20:07:21;14.70;99.90
7325;DHT22;3703;48.016;7.802;2022-10-04T20:10:21;14.60;99.90
7325;DHT22;3703;48.016;7.802;2022-10-04T20:13:22;14.60;99.90
7325;DHT22;3703;48.016;7.802;2022-10-04T20:16:10;14.40;99.90
7325;DHT22;3703;48.016;7.802;2022-10-04T20:18:58;14.30;99.90
7325;DHT22;3703;48.016;7.802;2022-10-04T20:21:48;14.20;99.90
7325;DHT22;3703;48.016;7.802;2022-10-04T20:24:49;14.20;99.90
7325;DHT22;3703;48.016;7.802;2022-10-04T20:27:59;14.10;99.90
7325;DHT22;3703;48.016;7.802;2022-10-04T20:30:51;14.10;99.90
7325;DHT22;3703;48.016;7.802;2022-10-04T20:33:47;14.10;99.90
7325;DHT22;3703;48.016;7.802;2022-10-04T20:36:49;14.10;99.90
7325;DHT22;3703;48.016;7.802;2022-10-04T20:39:58;14.00;99.90
7325;DHT22;3703;48.016;7.802;2022-10-04T20:46:21;13.90;99.90
7325;DHT22;3703;48.016;7.802;2022-10-04T20:49:14;13.80;99.90
7325;DHT22;3703;48.016;7.802;2022-10-04T20:52:09;13.80;99.90
7325;DHT22;3703;48.016;7.802;2022-10-04T20:54:59;13.80;99.90
7325;DHT22;3703;48.016;7.802;2022-10-04T20:57:47;13.80;99.90
7325;DHT22;3703;48.016;7.802;2022-10-04T21:00:50;13.70;99.90
7325;DHT22;3703;48.016;7.802;2022-10-04T21:03:39;13.70;99.90
7325;DHT22;3703;48.016;7.802;2022-10-04T21:06:27;13.60;99.90
7325;DHT22;3703;48.016;7.802;2022-10-04T21:09:16;13.60;99.90
7325;DHT22;3703;48.016;7.802;2022-10-04T21:12:05;13.50;99.90
7325;DHT22;3703;48.016;7.802;2022-10-04T21:15:21;13.30;99.90